createdAt,value
2022-11-07T00:02:06.328Z,98.00
2022-11-07T00:04:33.774Z,98.10
2022-11-07T00:07:00.934Z,98.50
2022-11-07T00:11:55.939Z,98.20
2022-11-07T00:14:23.014Z,98.60
2022-11-07T00:16:50.194Z,98.60
2022-11-07T00:19:19.629Z,98.60
2022-11-07T00:24:17.622Z,98.10
2022-11-07T00:26:45.199Z,98.30
2022-11-07T00:29:17.436Z,98.40
2022-11-07T00:31:45.274Z,98.50
2022-11-07T00:34:12.509Z,98.50
2022-11-07T00:36:39.595Z,98.50
2022-11-07T00:39:07.145Z,98.60
2022-11-07T00:41:34.441Z,98.60
2022-11-07T00:44:01.523Z,99.30
2022-11-07T00:46:28.552Z,98.70
2022-11-07T00:48:55.714Z,98.70
2022-11-07T00:51:25.415Z,98.40
2022-11-07T00:53:52.971Z,98.60
2022-11-07T00:56:23.075Z,99.60
2022-11-07T00:58:54.714Z,99.70
2022-11-07T01:01:27.275Z,98.60
2022-11-07T01:06:43.378Z,98.50
2022-11-07T01:09:13.454Z,99.90
2022-11-07T01:11:41.833Z,99.80
2022-11-07T01:14:09.992Z,99.90
2022-11-07T01:16:38.950Z,99.90
2022-11-07T01:19:07.143Z,99.30
2022-11-07T01:24:03.626Z,99.40
2022-11-07T01:26:30.686Z,99.90
2022-11-07T01:28:57.766Z,99.50
2022-11-07T01:31:24.894Z,99.10
2022-11-07T01:38:51.107Z,99.70
2022-11-07T01:41:27.267Z,99.20
2022-11-07T01:43:57.032Z,99.10
2022-11-07T01:46:48.268Z,99.10
2022-11-07T01:49:20.612Z,98.90
2022-11-07T01:52:24.765Z,99.00
2022-11-07T01:55:17.303Z,98.90
2022-11-07T02:00:15.710Z,98.80
2022-11-07T02:02:45.102Z,99.10
2022-11-07T02:05:17.307Z,99.20
2022-11-07T02:07:44.347Z,99.10
2022-11-07T02:10:11.785Z,99.10
2022-11-07T02:12:39.965Z,99.10
2022-11-07T02:15:09.690Z,99.00
2022-11-07T02:17:36.860Z,99.10
2022-11-07T02:20:04.115Z,99.30
2022-11-07T02:22:52.724Z,99.30
2022-11-07T02:25:20.746Z,99.30
2022-11-07T02:27:51.426Z,99.40
2022-11-07T02:30:27.984Z,99.50
2022-11-07T02:32:55.330Z,99.50
2022-11-07T02:35:44.611Z,99.60
2022-11-07T02:38:11.550Z,99.70
2022-11-07T02:40:39.031Z,99.80
2022-11-07T02:43:09.627Z,99.80
2022-11-07T02:45:39.607Z,99.90
2022-11-07T02:48:06.802Z,99.90
2022-11-07T02:50:33.863Z,99.90
2022-11-07T02:53:00.938Z,99.90
2022-11-07T02:55:28.066Z,99.90
2022-11-07T02:57:55.108Z,99.90
2022-11-07T03:00:22.186Z,99.90
2022-11-07T03:02:49.400Z,99.90
2022-11-07T03:05:18.649Z,99.90
2022-11-07T03:07:47.386Z,99.90
2022-11-07T03:10:16.129Z,99.90
2022-11-07T03:12:43.527Z,99.90
2022-11-07T03:15:11.936Z,99.90
2022-11-07T03:17:39.305Z,99.90
2022-11-07T03:20:07.924Z,99.90
2022-11-07T03:25:02.468Z,99.90
2022-11-07T03:29:57.048Z,99.90
2022-11-07T03:34:51.588Z,99.90
2022-11-07T03:37:18.587Z,99.90
2022-11-07T03:42:13.253Z,99.90
2022-11-07T03:47:07.704Z,99.90
2022-11-07T03:52:02.140Z,99.90
2022-11-07T03:54:29.274Z,99.90
2022-11-07T03:56:56.437Z,99.90
2022-11-07T03:59:23.504Z,99.90
2022-11-07T04:01:50.729Z,99.90
2022-11-07T04:04:17.893Z,99.90
2022-11-07T04:06:44.912Z,99.90
2022-11-07T04:17:21.125Z,99.90
2022-11-07T04:19:50.038Z,99.90
2022-11-07T04:22:18.270Z,99.90
2022-11-07T04:24:46.212Z,99.90
2022-11-07T04:27:34.212Z,99.90
2022-11-07T04:30:19.148Z,99.90
2022-11-07T04:32:48.130Z,99.90
2022-11-07T04:35:16.349Z,99.90
2022-11-07T04:37:43.755Z,99.90
2022-11-07T04:40:11.540Z,99.90
2022-11-07T04:42:39.014Z,99.90
2022-11-07T04:45:07.222Z,99.90
2022-11-07T04:47:39.145Z,99.90
2022-11-07T04:50:10.690Z,99.90
2022-11-07T04:52:37.634Z,99.90
2022-11-07T04:55:06.517Z,99.90
2022-11-07T04:57:33.544Z,99.90
2022-11-07T05:00:00.603Z,99.90
2022-11-07T05:09:50.182Z,99.90
2022-11-07T05:12:17.186Z,99.90
2022-11-07T05:14:44.269Z,99.90
2022-11-07T05:17:17.539Z,99.90
2022-11-07T05:19:44.664Z,99.90
2022-11-07T05:22:30.715Z,99.90
2022-11-07T05:24:57.807Z,99.90
2022-11-07T05:32:20.020Z,99.90
2022-11-07T05:34:47.026Z,99.90
2022-11-07T05:37:14.250Z,99.90
2022-11-07T05:39:41.326Z,99.90
2022-11-07T05:42:08.480Z,99.90
2022-11-07T05:44:35.580Z,99.90
2022-11-07T05:49:29.999Z,99.90
2022-11-07T05:51:57.780Z,99.90
2022-11-07T05:54:27.972Z,99.90
2022-11-07T05:56:58.454Z,99.90
2022-11-07T05:59:26.057Z,99.90
2022-11-07T06:01:53.959Z,99.90
2022-11-07T06:04:21.319Z,99.90
2022-11-07T06:09:15.834Z,99.90
2022-11-07T06:11:42.950Z,99.90
2022-11-07T06:19:04.981Z,99.90
2022-11-07T06:26:27.016Z,99.90
2022-11-07T06:28:54.333Z,99.90
2022-11-07T06:31:21.494Z,99.90
2022-11-07T06:33:51.932Z,99.90
2022-11-07T06:36:19.541Z,99.90
2022-11-07T06:41:15.429Z,99.90
2022-11-07T06:43:42.552Z,99.90
2022-11-07T06:46:13.461Z,99.90
2022-11-07T06:48:40.780Z,99.90
2022-11-07T06:53:37.828Z,99.90
2022-11-07T06:56:07.016Z,99.90
2022-11-07T06:58:34.565Z,99.90
2022-11-07T07:01:06.914Z,99.90
2022-11-07T07:03:34.234Z,99.90
2022-11-07T07:06:04.188Z,99.90
2022-11-07T07:08:31.745Z,99.90
2022-11-07T07:11:03.703Z,99.90
2022-11-07T07:15:59.043Z,99.90
2022-11-07T07:18:27.196Z,99.90
2022-11-07T07:21:12.031Z,99.90
2022-11-07T07:23:39.401Z,99.90
2022-11-07T07:26:10.095Z,99.90
2022-11-07T07:28:39.842Z,99.90
2022-11-07T07:31:30.866Z,99.90
2022-11-07T07:38:53.832Z,99.90
2022-11-07T07:41:20.971Z,99.90
2022-11-07T07:43:48.003Z,99.90
2022-11-07T07:46:20.072Z,99.90
2022-11-07T07:48:47.086Z,99.90
2022-11-07T07:51:14.148Z,99.90
2022-11-07T07:53:41.132Z,99.90
2022-11-07T07:56:08.442Z,99.90
2022-11-07T08:03:59.532Z,99.90
2022-11-07T08:08:53.092Z,99.90
2022-11-07T08:11:20.159Z,99.90
2022-11-07T08:13:47.193Z,99.90
2022-11-07T08:18:41.697Z,99.90
2022-11-07T08:21:09.406Z,99.90
2022-11-07T08:23:37.048Z,99.90
2022-11-07T08:26:04.962Z,99.90
2022-11-07T08:28:35.443Z,99.90
2022-11-07T08:31:06.672Z,99.90
2022-11-07T08:36:02.765Z,99.90
2022-11-07T08:38:31.166Z,99.90
2022-11-07T08:43:26.653Z,99.90
2022-11-07T08:45:54.968Z,99.90
2022-11-07T08:48:22.695Z,99.90
2022-11-07T08:50:55.025Z,99.90
2022-11-07T08:58:18.140Z,99.90
2022-11-07T09:00:45.430Z,99.90
2022-11-07T09:06:01.404Z,99.90
2022-11-07T09:08:28.411Z,99.90
2022-11-07T09:10:55.520Z,99.90
2022-11-07T09:13:22.562Z,99.90
2022-11-07T09:15:51.797Z,99.90
2022-11-07T09:18:19.846Z,99.90
2022-11-07T09:20:47.531Z,99.90
2022-11-07T09:23:15.036Z,99.90
2022-11-07T09:25:42.316Z,99.90
2022-11-07T09:28:09.593Z,99.90
2022-11-07T09:30:36.951Z,99.90
2022-11-07T09:33:04.084Z,99.90
2022-11-07T09:35:31.104Z,99.90
2022-11-07T09:40:44.377Z,99.90
2022-11-07T09:43:30.477Z,99.90
2022-11-07T09:46:22.804Z,99.90
2022-11-07T09:49:04.754Z,99.90
2022-11-07T09:54:04.078Z,99.90
2022-11-07T09:56:32.948Z,99.90
2022-11-07T09:59:12.833Z,99.90
2022-11-07T10:01:41.642Z,99.90
2022-11-07T10:04:26.800Z,99.90
2022-11-07T10:07:08.281Z,99.90
2022-11-07T10:09:59.380Z,99.90
2022-11-07T10:12:49.590Z,99.90
2022-11-07T10:15:48.625Z,99.90
2022-11-07T10:18:28.673Z,99.90
2022-11-07T10:24:12.214Z,99.90
2022-11-07T10:26:42.671Z,99.90
2022-11-07T10:29:21.665Z,99.90
2022-11-07T10:32:19.115Z,99.90
2022-11-07T10:34:55.198Z,99.90
2022-11-07T10:37:22.361Z,99.90
2022-11-07T10:39:49.400Z,99.90
2022-11-07T10:42:24.135Z,99.90
2022-11-07T10:44:53.170Z,99.90
2022-11-07T10:47:23.889Z,99.90
2022-11-07T10:50:03.041Z,99.90
2022-11-07T10:55:16.385Z,99.90
2022-11-07T10:57:45.999Z,99.90
2022-11-07T11:00:28.835Z,99.90
2022-11-07T11:02:56.794Z,99.90
2022-11-07T11:05:43.916Z,99.90
2022-11-07T11:08:20.251Z,99.90
2022-11-07T11:10:48.452Z,99.90
2022-11-07T11:13:30.007Z,99.90
2022-11-07T11:16:05.749Z,99.90
2022-11-07T11:18:33.249Z,99.90
2022-11-07T11:21:03.195Z,99.90
2022-11-07T11:23:37.659Z,99.90
2022-11-07T11:26:29.821Z,99.90
2022-11-07T11:29:43.221Z,99.90
2022-11-07T11:32:22.596Z,99.90
2022-11-07T11:34:57.082Z,99.90
2022-11-07T11:37:27.359Z,99.90
2022-11-07T11:40:02.415Z,99.90
2022-11-07T11:42:51.041Z,99.90
2022-11-07T11:45:29.228Z,99.90
2022-11-07T11:48:20.546Z,99.90
2022-11-07T11:50:58.351Z,99.90
2022-11-07T11:53:25.372Z,99.90
2022-11-07T11:56:07.442Z,99.90
2022-11-07T11:58:48.447Z,99.90
2022-11-07T12:04:21.338Z,99.90
2022-11-07T12:06:49.384Z,99.90
2022-11-07T12:09:28.235Z,99.90
2022-11-07T12:11:59.284Z,99.90
2022-11-07T12:14:34.012Z,99.90
2022-11-07T12:17:21.184Z,99.90
2022-11-07T12:20:08.400Z,99.90
2022-11-07T12:22:48.231Z,99.90
2022-11-07T12:25:56.927Z,99.90
2022-11-07T12:28:44.171Z,99.90
2022-11-07T12:31:23.162Z,99.90
2022-11-07T12:33:56.350Z,99.90
2022-11-07T12:36:50.410Z,99.90
2022-11-07T12:39:38.455Z,99.90
2022-11-07T12:42:16.120Z,99.90
2022-11-07T12:45:07.581Z,99.90
2022-11-07T12:47:49.692Z,99.90
2022-11-07T12:50:46.809Z,99.90
2022-11-07T12:53:26.099Z,99.90
2022-11-07T12:56:13.184Z,99.90
2022-11-07T12:58:43.428Z,99.90
2022-11-07T13:01:15.575Z,99.90
2022-11-07T13:04:04.192Z,99.90
2022-11-07T13:06:43.449Z,99.90
2022-11-07T13:09:28.220Z,99.90
2022-11-07T13:14:34.664Z,99.90
2022-11-07T13:17:01.681Z,99.90
2022-11-07T13:19:34.974Z,99.90
2022-11-07T13:22:21.500Z,99.90
2022-11-07T13:24:55.397Z,99.90
2022-11-07T13:27:25.595Z,99.90
2022-11-07T13:29:52.711Z,99.90
2022-11-07T13:32:19.944Z,99.90
2022-11-07T13:34:57.941Z,99.90
2022-11-07T13:37:32.896Z,99.90
2022-11-07T13:40:15.298Z,99.90
2022-11-07T13:42:44.860Z,99.90
2022-11-07T13:45:26.972Z,99.90
2022-11-07T13:48:03.210Z,99.90
2022-11-07T13:50:42.101Z,99.90
2022-11-07T13:53:19.618Z,99.90
2022-11-07T13:56:24.419Z,99.90
2022-11-07T13:58:53.131Z,99.90
2022-11-07T14:01:20.311Z,99.90
2022-11-07T14:03:47.571Z,99.90
2022-11-07T14:06:16.526Z,99.90
2022-11-07T14:08:48.414Z,99.90
2022-11-07T14:11:22.325Z,99.90
2022-11-07T14:13:54.418Z,99.90
2022-11-07T14:16:27.103Z,99.90
2022-11-07T14:19:01.059Z,99.90
2022-11-07T14:21:31.068Z,99.90
2022-11-07T14:23:58.242Z,99.90
2022-11-07T14:26:32.751Z,99.90
2022-11-07T14:29:01.020Z,99.90
2022-11-07T14:31:29.966Z,99.90
2022-11-07T14:34:16.978Z,99.90
2022-11-07T14:36:51.801Z,99.90
2022-11-07T14:39:20.320Z,99.90
2022-11-07T14:41:47.946Z,99.90
2022-11-07T14:44:25.224Z,99.90
2022-11-07T14:46:56.089Z,99.90
2022-11-07T14:49:34.226Z,99.90
2022-11-07T14:52:01.411Z,99.90
2022-11-07T14:54:37.214Z,99.90
2022-11-07T14:57:05.639Z,99.90
2022-11-07T14:59:35.525Z,99.90
2022-11-07T15:02:19.183Z,99.90
2022-11-07T15:04:48.411Z,99.90
2022-11-07T15:07:25.871Z,99.90
2022-11-07T15:09:54.813Z,99.90
2022-11-07T15:12:28.125Z,99.90
2022-11-07T15:15:18.969Z,99.90
2022-11-07T15:17:52.060Z,99.90
2022-11-07T15:20:32.900Z,99.90
2022-11-07T15:23:01.745Z,99.90
2022-11-07T15:25:38.485Z,99.90
2022-11-07T15:28:18.273Z,99.90
2022-11-07T15:30:47.076Z,99.90
2022-11-07T15:33:17.190Z,99.90
2022-11-07T15:35:46.909Z,99.90
2022-11-07T15:38:28.303Z,99.90
2022-11-07T15:40:55.486Z,99.90
2022-11-07T15:45:52.381Z,99.90
2022-11-07T15:48:32.976Z,99.90
2022-11-07T15:51:02.691Z,99.90
2022-11-07T15:53:29.962Z,99.90
2022-11-07T15:55:59.923Z,99.90
2022-11-07T15:58:29.465Z,99.90
2022-11-07T16:00:58.661Z,99.90
2022-11-07T16:03:27.582Z,99.90
2022-11-07T16:05:57.904Z,99.90
2022-11-07T16:08:25.136Z,99.90
2022-11-07T16:10:56.004Z,99.90
2022-11-07T16:13:23.322Z,99.90
2022-11-07T16:15:55.048Z,99.90
2022-11-07T16:20:51.160Z,99.90
2022-11-07T16:23:18.384Z,99.90
2022-11-07T16:25:49.805Z,99.90
2022-11-07T16:30:45.013Z,99.90
2022-11-07T16:33:13.105Z,99.90
2022-11-07T16:35:40.780Z,99.90
2022-11-07T16:38:16.291Z,99.90
2022-11-07T16:40:44.474Z,99.90
2022-11-07T16:43:11.659Z,99.90
2022-11-07T16:45:46.013Z,99.90
2022-11-07T16:48:37.628Z,99.90
2022-11-07T16:51:04.958Z,99.90
2022-11-07T16:53:32.310Z,99.90
2022-11-07T16:56:03.254Z,99.90
2022-11-07T16:58:33.086Z,99.90
2022-11-07T17:01:05.300Z,99.90
2022-11-07T17:03:33.359Z,99.90
2022-11-07T17:06:03.601Z,99.90
2022-11-07T17:08:37.919Z,99.90
2022-11-07T17:11:05.781Z,99.90
2022-11-07T17:13:33.105Z,99.90
2022-11-07T17:16:00.388Z,99.90
2022-11-07T17:18:28.001Z,99.90
2022-11-07T17:20:55.744Z,99.90
2022-11-07T17:23:29.973Z,99.90
2022-11-07T17:26:00.397Z,99.90
2022-11-07T17:28:27.762Z,99.90
2022-11-07T17:33:22.477Z,99.90
2022-11-07T17:35:53.502Z,99.90
2022-11-07T17:40:48.143Z,99.90
2022-11-07T17:43:15.321Z,99.90
2022-11-07T17:45:42.439Z,99.90
2022-11-07T17:48:10.905Z,99.90
2022-11-07T17:50:38.744Z,99.90
2022-11-07T17:53:05.881Z,99.90
2022-11-07T17:55:33.057Z,99.90
2022-11-07T17:58:00.057Z,99.90
2022-11-07T18:00:27.875Z,99.90
2022-11-07T18:02:55.037Z,99.90
2022-11-07T18:05:26.430Z,99.90
2022-11-07T18:07:55.891Z,99.90
2022-11-07T18:10:22.966Z,99.90
2022-11-07T18:12:50.456Z,99.90
2022-11-07T18:15:17.614Z,99.90
2022-11-07T18:17:44.722Z,99.90
2022-11-07T18:20:12.029Z,99.90
2022-11-07T18:22:39.266Z,99.90
2022-11-07T18:25:07.462Z,99.90
2022-11-07T18:27:35.383Z,99.90
2022-11-07T18:30:03.127Z,99.90
2022-11-07T18:35:06.123Z,99.90
2022-11-07T18:37:33.826Z,99.90
2022-11-07T18:42:29.429Z,99.90
2022-11-07T18:44:56.744Z,99.90
2022-11-07T18:47:24.290Z,99.90
2022-11-07T18:52:24.578Z,99.90
2022-11-07T18:57:19.206Z,99.90
2022-11-07T19:02:14.520Z,99.90
2022-11-07T19:09:38.599Z,99.90
2022-11-07T19:12:05.789Z,99.90
2022-11-07T19:14:34.178Z,99.90
2022-11-07T19:19:28.804Z,99.90
2022-11-07T19:21:56.389Z,99.90
2022-11-07T19:24:23.448Z,99.90
2022-11-07T19:26:50.593Z,99.90
2022-11-07T19:34:12.808Z,99.90
2022-11-07T19:36:39.857Z,99.90
2022-11-07T19:39:06.967Z,99.90
2022-11-07T19:44:04.470Z,99.90
2022-11-07T19:46:31.651Z,99.90
2022-11-07T19:48:58.696Z,99.90
2022-11-07T19:51:25.748Z,99.90
2022-11-07T19:53:54.990Z,99.90
2022-11-07T19:56:23.036Z,99.90
2022-11-07T19:58:50.099Z,99.90
2022-11-07T20:01:20.578Z,99.90
2022-11-07T20:03:50.608Z,99.90
2022-11-07T20:06:21.635Z,99.90
2022-11-07T20:08:49.560Z,99.90
2022-11-07T20:11:19.939Z,99.90
2022-11-07T20:13:47.328Z,99.90
2022-11-07T20:16:14.490Z,99.90
2022-11-07T20:18:41.984Z,99.90
2022-11-07T20:21:13.199Z,99.90
2022-11-07T20:23:41.318Z,99.90
2022-11-07T20:26:11.313Z,99.90
2022-11-07T20:28:38.540Z,99.90
2022-11-07T20:31:13.477Z,99.90
2022-11-07T20:36:10.696Z,99.90
2022-11-07T20:38:38.154Z,99.90
2022-11-07T20:41:05.962Z,99.90
2022-11-07T20:43:34.062Z,99.90
2022-11-07T20:46:14.908Z,99.90
2022-11-07T20:48:42.624Z,99.90
2022-11-07T20:51:20.049Z,99.90
2022-11-07T20:53:50.375Z,99.90
2022-11-07T20:56:22.881Z,99.90
2022-11-07T20:58:50.253Z,99.90
2022-11-07T21:01:20.960Z,99.90
2022-11-07T21:06:16.379Z,99.90
2022-11-07T21:08:47.284Z,99.90
2022-11-07T21:11:15.335Z,99.90
2022-11-07T21:13:46.496Z,99.90
2022-11-07T21:16:15.217Z,99.90
2022-11-07T21:21:20.136Z,99.90
2022-11-07T21:23:48.027Z,99.90
2022-11-07T21:26:18.164Z,99.90
2022-11-07T21:28:46.402Z,99.90
2022-11-07T21:31:18.188Z,99.90
2022-11-07T21:33:46.269Z,99.90
2022-11-07T21:36:16.601Z,99.90
2022-11-07T21:38:44.978Z,99.90
2022-11-07T21:41:12.779Z,99.90
2022-11-07T21:43:43.577Z,99.90
2022-11-07T21:46:13.912Z,99.90
2022-11-07T21:48:41.256Z,99.90
2022-11-07T21:51:17.118Z,99.90
2022-11-07T21:53:45.438Z,99.90
2022-11-07T21:56:23.925Z,99.90
2022-11-07T21:58:53.390Z,99.90
2022-11-07T22:01:21.448Z,99.90
2022-11-07T22:04:07.967Z,99.90
2022-11-07T22:06:39.780Z,99.90
2022-11-07T22:09:08.678Z,99.90
2022-11-07T22:11:35.917Z,99.90
2022-11-07T22:14:03.764Z,99.90
2022-11-07T22:16:31.561Z,99.90
2022-11-07T22:19:00.162Z,99.90
2022-11-07T22:23:56.328Z,99.90
2022-11-07T22:26:25.520Z,99.90
2022-11-07T22:28:53.107Z,99.90
2022-11-07T22:31:25.751Z,99.90
2022-11-07T22:33:54.375Z,99.90
2022-11-07T22:36:22.342Z,99.90
2022-11-07T22:38:50.105Z,99.90
2022-11-07T22:41:22.881Z,99.90
2022-11-07T22:46:20.719Z,99.90
2022-11-07T22:48:50.744Z,99.90
2022-11-07T22:51:29.563Z,99.90
2022-11-07T22:54:07.991Z,99.90
2022-11-07T22:56:36.425Z,99.90
2022-11-07T23:01:33.770Z,99.90
2022-11-07T23:04:01.414Z,99.90
2022-11-07T23:06:29.494Z,99.90
2022-11-07T23:08:58.077Z,99.90
2022-11-07T23:11:49.001Z,99.90
2022-11-07T23:14:19.330Z,99.90
2022-11-07T23:16:52.313Z,99.90
2022-11-07T23:19:21.889Z,99.90
2022-11-07T23:21:49.449Z,99.90
2022-11-07T23:24:16.801Z,99.90
2022-11-07T23:26:43.829Z,99.90
2022-11-07T23:29:17.588Z,99.90
2022-11-07T23:31:47.053Z,99.90
2022-11-07T23:34:15.058Z,99.90
2022-11-07T23:36:44.326Z,99.90
2022-11-07T23:39:17.335Z,99.90
2022-11-07T23:41:45.099Z,99.90
2022-11-07T23:44:12.314Z,99.90
2022-11-07T23:46:58.103Z,99.90
2022-11-07T23:49:43.737Z,99.90
2022-11-07T23:52:10.842Z,99.90
2022-11-07T23:54:56.617Z,99.90
2022-11-07T23:57:23.601Z,99.90
